»·PEaware :: N149CD KVNY-KHND

N149CD :: KVNY-KHND

FLIGHT INFORMATION

Flight Status: Arrived
Operator: Privately registered:
United States
More flights under this callsign
Pilot: Nathan E. (30132)
Aircraft: CESSNA 172 SKYHAWK
(C172)
More flights by this aircraft type
Origin: KVNY Van Nuys
United States
Destination: KHND Henderson
United States
More flights between these airports :: More routes between these airports
Route: +NUAL1 PMD V12 HEC V21 BLD
File this flight plan on PilotEdge
Remarks:
Altitude:
(Current/Filed)
11,000ft
Speed:
(Current/Filed)
110kts
Departed: 20-Sep-20 12:53 PM
Arrived: 20-Sep-20 02:50 PM
Distance/Time
Traveled:
196nm/1:57
Distance/Time
To Go:
Arrived

Flight Plot

Page will automatically refresh every two minutes.

Flight plan parsing failed; only flown route is shown


Map Options




Map Legend


Flown Route
Filed Route
Departure Airport
Arrival Airport
Navaid (VOR, NDB)
Fix

Horizontal Profiles

Position Reports

Time Latitude Longitude Heading Altitude Ground
Speed
20-Sep-20 12:32 34.208083 -118.491765 90 806ft 0kts
20-Sep-20 12:33 34.208083 -118.491765 90 806ft 0kts
20-Sep-20 12:34 34.208083 -118.491765 90 806ft 0kts
20-Sep-20 12:35 34.208083 -118.491765 90 806ft 0kts
20-Sep-20 12:36 34.208083 -118.491765 90 806ft 0kts
20-Sep-20 12:37 34.208083 -118.491765 90 806ft 0kts
20-Sep-20 12:38 34.208083 -118.491765 90 806ft 0kts
20-Sep-20 12:39 34.208083 -118.491765 90 806ft 0kts
20-Sep-20 12:40 34.208083 -118.491765 90 806ft 0kts
20-Sep-20 12:41 34.208083 -118.491765 90 806ft 0kts
20-Sep-20 12:42 34.208083 -118.491765 90 806ft 0kts
20-Sep-20 12:43 34.208083 -118.491765 90 806ft 0kts
20-Sep-20 12:44 34.208083 -118.491765 90 806ft 0kts
20-Sep-20 12:45 34.208083 -118.491765 90 806ft 0kts
20-Sep-20 12:46 34.208083 -118.491765 90 806ft 0kts
20-Sep-20 12:48 34.208412 -118.491501 13 806ft 16kts
20-Sep-20 12:49 34.215351 -118.492129 350 806ft 27kts
20-Sep-20 12:50 34.219333 -118.492189 98 806ft 0kts
20-Sep-20 12:51 34.219333 -118.492189 98 806ft 0kts
20-Sep-20 12:52 34.219220 -118.491988 135 806ft 11kts
20-Sep-20 12:53 34.205651 -118.490020 174 1017ft 78kts
20-Sep-20 12:54 34.183955 -118.488009 162 1757ft 80kts
20-Sep-20 12:55 34.169897 -118.468819 124 2496ft 76kts
20-Sep-20 12:56 34.157226 -118.448339 124 3205ft 75kts
20-Sep-20 12:57 34.145013 -118.428039 124 3870ft 74kts
20-Sep-20 12:58 34.152880 -118.409065 27 4471ft 84kts
20-Sep-20 12:59 34.174252 -118.396926 33 5046ft 85kts
20-Sep-20 13:00 34.195331 -118.382914 35 5585ft 87kts
20-Sep-20 13:01 34.216681 -118.367862 35 6104ft 90kts
20-Sep-20 13:02 34.238414 -118.352194 35 6595ft 92kts
20-Sep-20 13:02 34.256844 -118.338800 35 6990ft 93kts
20-Sep-20 13:04 34.283244 -118.319555 35 7555ft 92kts
20-Sep-20 13:05 34.305116 -118.303552 35 8009ft 93kts
20-Sep-20 13:06 34.328177 -118.286701 35 8428ft 96kts
20-Sep-20 13:06 34.347413 -118.272641 35 8778ft 97kts
20-Sep-20 13:07 34.370235 -118.255939 35 9174ft 97kts
20-Sep-20 13:08 34.396447 -118.236736 35 9604ft 97kts
20-Sep-20 13:10 34.424773 -118.215966 35 10038ft 98kts
20-Sep-20 13:10 34.445684 -118.200619 35 10337ft 99kts
20-Sep-20 13:11 34.469183 -118.183246 29 10631ft 102kts
20-Sep-20 13:12 34.494069 -118.165054 29 10910ft 106kts
20-Sep-20 13:13 34.522788 -118.143874 29 10486ft 129kts
20-Sep-20 13:14 34.553935 -118.120896 29 9983ft 131kts
20-Sep-20 13:15 34.585595 -118.097569 28 9485ft 133kts
20-Sep-20 13:16 34.616897 -118.074485 28 9050ft 127kts
20-Sep-20 13:17 34.632423 -118.040411 79 9043ft 119kts
20-Sep-20 13:18 34.637935 -118.001076 82 9041ft 118kts
20-Sep-20 13:19 34.642595 -117.961305 83 9037ft 119kts
20-Sep-20 13:20 34.647030 -117.921399 83 9033ft 119kts
20-Sep-20 13:21 34.651398 -117.881456 83 9029ft 119kts
20-Sep-20 13:22 34.655749 -117.841422 83 9025ft 119kts
20-Sep-20 13:23 34.660080 -117.801417 83 9024ft 119kts
20-Sep-20 13:24 34.664399 -117.761378 83 9024ft 119kts
20-Sep-20 13:25 34.668708 -117.721277 83 9024ft 119kts
20-Sep-20 13:26 34.673019 -117.681015 83 9025ft 120kts
20-Sep-20 13:27 34.677316 -117.640764 83 9026ft 120kts
20-Sep-20 13:28 34.681588 -117.600610 83 9028ft 120kts
20-Sep-20 13:29 34.685943 -117.559554 83 9028ft 120kts
20-Sep-20 13:30 34.690266 -117.518661 83 9028ft 120kts
20-Sep-20 13:31 34.694553 -117.477980 83 9028ft 121kts
20-Sep-20 13:32 34.698815 -117.437440 83 9028ft 121kts
20-Sep-20 13:33 34.703070 -117.396847 83 9028ft 120kts
20-Sep-20 13:34 34.707289 -117.356458 83 9028ft 120kts
20-Sep-20 13:35 34.711526 -117.315801 83 9026ft 120kts
20-Sep-20 13:36 34.715714 -117.275479 83 9027ft 119kts
20-Sep-20 13:37 34.719890 -117.235141 83 9027ft 119kts
20-Sep-20 13:38 34.724029 -117.195026 83 9026ft 119kts
20-Sep-20 13:39 34.728173 -117.154726 83 9024ft 120kts
20-Sep-20 13:40 34.732293 -117.114531 83 9022ft 120kts
20-Sep-20 13:41 34.736405 -117.074723 87 9010ft 113kts
20-Sep-20 13:42 34.740105 -117.038110 87 9001ft 107kts
20-Sep-20 13:43 34.743736 -117.002097 88 8992ft 107kts
20-Sep-20 13:44 34.747392 -116.965801 88 8984ft 108kts
20-Sep-20 13:45 34.751027 -116.929626 88 8975ft 109kts
20-Sep-20 13:46 34.754684 -116.893218 88 9023ft 109kts
20-Sep-20 13:47 34.758379 -116.856156 88 9019ft 110kts
20-Sep-20 13:48 34.762101 -116.818882 88 9019ft 110kts
20-Sep-20 13:49 34.765800 -116.781709 88 9019ft 110kts
20-Sep-20 13:50 34.769493 -116.744485 88 9019ft 111kts
20-Sep-20 13:51 34.773179 -116.707218 88 9019ft 111kts
20-Sep-20 13:52 34.776853 -116.669957 88 9019ft 111kts
20-Sep-20 13:53 34.780511 -116.632735 88 9019ft 111kts
20-Sep-20 13:54 34.784181 -116.595273 88 9019ft 111kts
20-Sep-20 13:55 34.787832 -116.557883 88 9019ft 111kts
20-Sep-20 13:56 34.791463 -116.520580 88 9019ft 111kts
20-Sep-20 13:57 34.795083 -116.483266 88 9019ft 110kts
20-Sep-20 13:58 34.808678 -116.449688 53 9019ft 117kts
20-Sep-20 13:59 34.830320 -116.420039 51 9019ft 117kts
20-Sep-20 14:00 34.852458 -116.390777 51 9020ft 117kts
20-Sep-20 14:01 34.874599 -116.361760 50 9026ft 117kts
20-Sep-20 14:02 34.896942 -116.332519 51 9032ft 118kts
20-Sep-20 14:03 34.919360 -116.303177 51 9037ft 118kts
20-Sep-20 14:04 34.941755 -116.273843 51 9040ft 118kts
20-Sep-20 14:05 34.964242 -116.244358 51 9043ft 118kts
20-Sep-20 14:06 34.986551 -116.215087 50 9043ft 118kts
20-Sep-20 14:07 35.008923 -116.185708 50 9042ft 118kts
20-Sep-20 14:08 35.031250 -116.156361 50 9040ft 118kts
20-Sep-20 14:09 35.053586 -116.126979 50 9038ft 117kts
20-Sep-20 14:10 35.075785 -116.097752 50 9038ft 117kts
20-Sep-20 14:11 35.098018 -116.068454 50 9038ft 117kts
20-Sep-20 14:12 35.120233 -116.039158 50 9035ft 116kts
20-Sep-20 14:13 35.142236 -116.010113 50 9035ft 116kts
20-Sep-20 14:14 35.164295 -115.980970 50 9035ft 116kts
20-Sep-20 14:15 35.186303 -115.951868 50 9035ft 116kts
20-Sep-20 14:16 35.208376 -115.922655 50 9035ft 116kts
20-Sep-20 14:17 35.230340 -115.893571 51 9038ft 116kts
20-Sep-20 14:18 35.252279 -115.864490 51 9041ft 115kts
20-Sep-20 14:19 35.273958 -115.835726 51 9045ft 114kts
20-Sep-20 14:20 35.295530 -115.807079 52 9048ft 114kts
20-Sep-20 14:21 35.316993 -115.778550 52 9051ft 113kts
20-Sep-20 14:22 35.338177 -115.750372 52 9054ft 111kts
20-Sep-20 14:23 35.359147 -115.722453 52 9058ft 110kts
20-Sep-20 14:24 35.379980 -115.694504 44 9057ft 116kts
20-Sep-20 14:25 35.402562 -115.664537 45 9055ft 120kts
20-Sep-20 14:26 35.425208 -115.634331 45 9055ft 120kts
20-Sep-20 14:27 35.447871 -115.604057 45 9055ft 120kts
20-Sep-20 14:28 35.470454 -115.573858 45 9055ft 119kts
20-Sep-20 14:29 35.493040 -115.543633 45 9056ft 120kts
20-Sep-20 14:30 35.515628 -115.513353 45 9055ft 120kts
20-Sep-20 14:31 35.537927 -115.482665 46 9056ft 120kts
20-Sep-20 14:32 35.560055 -115.451747 46 9055ft 121kts
20-Sep-20 14:33 35.582527 -115.420333 54 8624ft 117kts
20-Sep-20 14:34 35.603634 -115.390667 53 8343ft 121kts
20-Sep-20 14:35 35.625789 -115.359668 53 8110ft 113kts
20-Sep-20 14:36 35.646759 -115.330138 54 8236ft 117kts
20-Sep-20 14:37 35.668045 -115.300284 54 8253ft 109kts
20-Sep-20 14:38 35.688322 -115.271775 54 8218ft 110kts
20-Sep-20 14:39 35.708234 -115.243534 59 8219ft 109kts
20-Sep-20 14:40 35.725322 -115.210788 63 7781ft 115kts
20-Sep-20 14:41 35.742246 -115.177288 63 7295ft 114kts
20-Sep-20 14:42 35.759779 -115.144170 43 6801ft 121kts
20-Sep-20 14:43 35.793653 -115.136846 6 6311ft 126kts
20-Sep-20 14:44 35.828043 -115.136436 5 5812ft 124kts
20-Sep-20 14:46 35.862072 -115.135992 8 5568ft 120kts
20-Sep-20 14:47 35.896093 -115.135117 6 4948ft 123kts
20-Sep-20 14:48 35.927032 -115.136364 9 3975ft 100kts
20-Sep-20 14:49 35.951505 -115.135731 8 2975ft 82kts
20-Sep-20 14:50 35.969167 -115.135460 1 2450ft 33kts
20-Sep-20 14:51 35.970916 -115.136532 270 2441ft 10kts
20-Sep-20 14:52 35.970824 -115.137410 181 2439ft 0kts

Navigation Log

Ident Type
Flight plan parsing failed, navigation log unavailable